sensor_id;sensor_type;location;lat;lon;timestamp;P1;durP1;ratioP1;P2;durP2;ratioP2
6651;SDS011;3362;50.892;10.692;2024-03-08T00:00:43;4.72;;;2.97;;
6651;SDS011;3362;50.892;10.692;2024-03-08T00:03:09;8.93;;;3.80;;
6651;SDS011;3362;50.892;10.692;2024-03-08T00:05:36;5.43;;;4.25;;
6651;SDS011;3362;50.892;10.692;2024-03-08T00:08:05;6.50;;;3.70;;
6651;SDS011;3362;50.892;10.692;2024-03-08T00:10:34;1.70;;;1.58;;
6651;SDS011;3362;50.892;10.692;2024-03-08T00:13:01;5.00;;;2.58;;
6651;SDS011;3362;50.892;10.692;2024-03-08T00:15:29;6.38;;;5.40;;
6651;SDS011;3362;50.892;10.692;2024-03-08T00:17:57;6.63;;;3.72;;
6651;SDS011;3362;50.892;10.692;2024-03-08T00:20:23;4.53;;;2.58;;
6651;SDS011;3362;50.892;10.692;2024-03-08T00:22:50;4.63;;;2.90;;
6651;SDS011;3362;50.892;10.692;2024-03-08T00:25:17;2.75;;;2.13;;
6651;SDS011;3362;50.892;10.692;2024-03-08T00:27:43;5.28;;;4.05;;
6651;SDS011;3362;50.892;10.692;2024-03-08T00:30:10;3.05;;;2.65;;
6651;SDS011;3362;50.892;10.692;2024-03-08T00:32:38;5.43;;;5.05;;
6651;SDS011;3362;50.892;10.692;2024-03-08T00:35:04;3.75;;;2.97;;
6651;SDS011;3362;50.892;10.692;2024-03-08T00:37:32;2.55;;;2.35;;
6651;SDS011;3362;50.892;10.692;2024-03-08T00:39:58;3.97;;;3.60;;
6651;SDS011;3362;50.892;10.692;2024-03-08T00:42:26;3.00;;;2.75;;
6651;SDS011;3362;50.892;10.692;2024-03-08T00:44:52;3.72;;;3.42;;
6651;SDS011;3362;50.892;10.692;2024-03-08T00:47:19;2.92;;;2.65;;
6651;SDS011;3362;50.892;10.692;2024-03-08T00:49:45;8.63;;;4.57;;
6651;SDS011;3362;50.892;10.692;2024-03-08T00:52:11;3.67;;;3.47;;
6651;SDS011;3362;50.892;10.692;2024-03-08T00:54:38;6.50;;;4.85;;
6651;SDS011;3362;50.892;10.692;2024-03-08T00:57:04;3.58;;;3.40;;
6651;SDS011;3362;50.892;10.692;2024-03-08T00:59:32;12.02;;;4.30;;
6651;SDS011;3362;50.892;10.692;2024-03-08T01:01:59;2.55;;;2.35;;
6651;SDS011;3362;50.892;10.692;2024-03-08T01:04:25;5.20;;;1.65;;
6651;SDS011;3362;50.892;10.692;2024-03-08T01:06:53;4.03;;;3.75;;
6651;SDS011;3362;50.892;10.692;2024-03-08T01:09:21;4.47;;;4.07;;
6651;SDS011;3362;50.892;10.692;2024-03-08T01:11:47;2.47;;;2.33;;
6651;SDS011;3362;50.892;10.692;2024-03-08T01:16:41;3.28;;;3.08;;
6651;SDS011;3362;50.892;10.692;2024-03-08T01:19:08;4.00;;;3.70;;
6651;SDS011;3362;50.892;10.692;2024-03-08T01:21:34;6.45;;;3.05;;
6651;SDS011;3362;50.892;10.692;2024-03-08T01:24:00;3.53;;;2.90;;
6651;SDS011;3362;50.892;10.692;2024-03-08T01:26:26;5.38;;;4.75;;
6651;SDS011;3362;50.892;10.692;2024-03-08T01:28:52;4.13;;;2.25;;
6651;SDS011;3362;50.892;10.692;2024-03-08T01:31:19;6.00;;;3.70;;
6651;SDS011;3362;50.892;10.692;2024-03-08T01:33:46;6.95;;;5.22;;
6651;SDS011;3362;50.892;10.692;2024-03-08T01:36:13;3.05;;;2.78;;
6651;SDS011;3362;50.892;10.692;2024-03-08T01:41:06;3.15;;;2.95;;
6651;SDS011;3362;50.892;10.692;2024-03-08T01:43:32;4.97;;;3.38;;
6651;SDS011;3362;50.892;10.692;2024-03-08T01:45:59;5.70;;;3.90;;
6651;SDS011;3362;50.892;10.692;2024-03-08T01:48:25;2.75;;;1.80;;
6651;SDS011;3362;50.892;10.692;2024-03-08T01:50:53;2.40;;;2.30;;
6651;SDS011;3362;50.892;10.692;2024-03-08T01:53:20;5.68;;;4.38;;
6651;SDS011;3362;50.892;10.692;2024-03-08T01:55:47;7.60;;;3.30;;
6651;SDS011;3362;50.892;10.692;2024-03-08T01:58:14;2.75;;;2.55;;
6651;SDS011;3362;50.892;10.692;2024-03-08T02:00:41;5.60;;;3.97;;
6651;SDS011;3362;50.892;10.692;2024-03-08T02:03:08;5.30;;;3.78;;
6651;SDS011;3362;50.892;10.692;2024-03-08T02:05:35;2.45;;;2.28;;
6651;SDS011;3362;50.892;10.692;2024-03-08T02:08:05;5.57;;;4.32;;
6651;SDS011;3362;50.892;10.692;2024-03-08T02:10:32;5.30;;;3.80;;
6651;SDS011;3362;50.892;10.692;2024-03-08T02:12:59;4.15;;;3.90;;
6651;SDS011;3362;50.892;10.692;2024-03-08T02:15:25;3.25;;;3.05;;
6651;SDS011;3362;50.892;10.692;2024-03-08T02:17:52;11.65;;;4.75;;
6651;SDS011;3362;50.892;10.692;2024-03-08T02:20:19;4.03;;;3.58;;
6651;SDS011;3362;50.892;10.692;2024-03-08T02:22:46;7.93;;;3.63;;
6651;SDS011;3362;50.892;10.692;2024-03-08T02:25:13;5.10;;;4.65;;
6651;SDS011;3362;50.892;10.692;2024-03-08T02:27:39;4.95;;;3.13;;
6651;SDS011;3362;50.892;10.692;2024-03-08T02:30:05;2.47;;;2.30;;
6651;SDS011;3362;50.892;10.692;2024-03-08T02:32:32;10.18;;;4.25;;
6651;SDS011;3362;50.892;10.692;2024-03-08T02:34:58;8.95;;;6.00;;
6651;SDS011;3362;50.892;10.692;2024-03-08T02:37:25;3.95;;;3.15;;
6651;SDS011;3362;50.892;10.692;2024-03-08T02:39:52;5.82;;;4.43;;
6651;SDS011;3362;50.892;10.692;2024-03-08T02:42:18;5.43;;;4.75;;
6651;SDS011;3362;50.892;10.692;2024-03-08T02:44:44;5.07;;;3.63;;
6651;SDS011;3362;50.892;10.692;2024-03-08T02:47:11;3.80;;;3.00;;
6651;SDS011;3362;50.892;10.692;2024-03-08T02:49:37;11.68;;;3.97;;
6651;SDS011;3362;50.892;10.692;2024-03-08T02:52:03;7.63;;;3.85;;
6651;SDS011;3362;50.892;10.692;2024-03-08T02:54:29;4.50;;;3.97;;
6651;SDS011;3362;50.892;10.692;2024-03-08T02:56:57;3.05;;;2.85;;
6651;SDS011;3362;50.892;10.692;2024-03-08T02:59:23;6.50;;;4.05;;
6651;SDS011;3362;50.892;10.692;2024-03-08T03:01:49;4.57;;;3.63;;
6651;SDS011;3362;50.892;10.692;2024-03-08T03:04:16;4.90;;;4.35;;
6651;SDS011;3362;50.892;10.692;2024-03-08T03:06:43;4.22;;;3.15;;
6651;SDS011;3362;50.892;10.692;2024-03-08T03:09:09;3.47;;;2.78;;
6651;SDS011;3362;50.892;10.692;2024-03-08T03:11:36;2.33;;;2.20;;
6651;SDS011;3362;50.892;10.692;2024-03-08T03:14:03;3.20;;;3.00;;
6651;SDS011;3362;50.892;10.692;2024-03-08T03:16:32;4.95;;;3.00;;
6651;SDS011;3362;50.892;10.692;2024-03-08T03:18:58;3.15;;;1.88;;
6651;SDS011;3362;50.892;10.692;2024-03-08T03:21:28;4.95;;;4.43;;
6651;SDS011;3362;50.892;10.692;2024-03-08T03:23:56;15.13;;;3.75;;
6651;SDS011;3362;50.892;10.692;2024-03-08T03:26:24;3.63;;;2.33;;
6651;SDS011;3362;50.892;10.692;2024-03-08T03:28:50;4.75;;;3.40;;
6651;SDS011;3362;50.892;10.692;2024-03-08T03:31:18;4.05;;;3.72;;
6651;SDS011;3362;50.892;10.692;2024-03-08T03:33:44;6.07;;;4.88;;
6651;SDS011;3362;50.892;10.692;2024-03-08T03:36:12;1.50;;;1.40;;
6651;SDS011;3362;50.892;10.692;2024-03-08T03:38:39;5.53;;;3.47;;
6651;SDS011;3362;50.892;10.692;2024-03-08T03:41:05;2.83;;;2.47;;
6651;SDS011;3362;50.892;10.692;2024-03-08T03:43:35;3.42;;;3.20;;
6651;SDS011;3362;50.892;10.692;2024-03-08T03:46:02;7.22;;;3.60;;
6651;SDS011;3362;50.892;10.692;2024-03-08T03:48:32;3.35;;;3.10;;
6651;SDS011;3362;50.892;10.692;2024-03-08T03:50:58;3.50;;;3.30;;
6651;SDS011;3362;50.892;10.692;2024-03-08T03:53:24;4.45;;;3.22;;
6651;SDS011;3362;50.892;10.692;2024-03-08T03:55:52;8.32;;;4.78;;
6651;SDS011;3362;50.892;10.692;2024-03-08T03:58:18;4.13;;;3.85;;
6651;SDS011;3362;50.892;10.692;2024-03-08T04:00:47;4.65;;;3.17;;
6651;SDS011;3362;50.892;10.692;2024-03-08T04:03:13;4.65;;;3.20;;
6651;SDS011;3362;50.892;10.692;2024-03-08T04:05:41;4.57;;;2.08;;
6651;SDS011;3362;50.892;10.692;2024-03-08T04:08:07;4.20;;;3.90;;
6651;SDS011;3362;50.892;10.692;2024-03-08T04:10:33;6.05;;;4.43;;
6651;SDS011;3362;50.892;10.692;2024-03-08T04:12:59;3.53;;;3.22;;
6651;SDS011;3362;50.892;10.692;2024-03-08T04:15:25;3.40;;;3.15;;
6651;SDS011;3362;50.892;10.692;2024-03-08T04:17:51;2.88;;;2.67;;
6651;SDS011;3362;50.892;10.692;2024-03-08T04:20:18;4.20;;;2.45;;
6651;SDS011;3362;50.892;10.692;2024-03-08T04:22:47;5.65;;;5.32;;
6651;SDS011;3362;50.892;10.692;2024-03-08T04:25:14;8.82;;;2.83;;
6651;SDS011;3362;50.892;10.692;2024-03-08T04:27:41;5.35;;;4.93;;
6651;SDS011;3362;50.892;10.692;2024-03-08T04:30:08;3.60;;;3.30;;
6651;SDS011;3362;50.892;10.692;2024-03-08T04:32:34;2.60;;;1.83;;
6651;SDS011;3362;50.892;10.692;2024-03-08T04:35:00;4.20;;;3.80;;
6651;SDS011;3362;50.892;10.692;2024-03-08T04:37:28;10.25;;;4.80;;
6651;SDS011;3362;50.892;10.692;2024-03-08T04:39:56;7.05;;;3.38;;
6651;SDS011;3362;50.892;10.692;2024-03-08T04:42:22;13.75;;;5.45;;
6651;SDS011;3362;50.892;10.692;2024-03-08T04:44:48;4.43;;;4.13;;
6651;SDS011;3362;50.892;10.692;2024-03-08T04:47:15;6.50;;;3.65;;
6651;SDS011;3362;50.892;10.692;2024-03-08T04:49:42;5.05;;;4.72;;
6651;SDS011;3362;50.892;10.692;2024-03-08T04:52:09;2.28;;;2.10;;
6651;SDS011;3362;50.892;10.692;2024-03-08T04:54:35;2.38;;;2.28;;
6651;SDS011;3362;50.892;10.692;2024-03-08T04:57:03;3.55;;;3.35;;
6651;SDS011;3362;50.892;10.692;2024-03-08T04:59:29;6.90;;;6.25;;
6651;SDS011;3362;50.892;10.692;2024-03-08T05:01:56;6.32;;;4.10;;
6651;SDS011;3362;50.892;10.692;2024-03-08T05:04:22;4.15;;;3.85;;
6651;SDS011;3362;50.892;10.692;2024-03-08T05:06:48;5.20;;;2.92;;
6651;SDS011;3362;50.892;10.692;2024-03-08T05:09:14;8.63;;;3.53;;
6651;SDS011;3362;50.892;10.692;2024-03-08T05:11:41;3.35;;;3.15;;
6651;SDS011;3362;50.892;10.692;2024-03-08T05:14:09;2.97;;;2.40;;
6651;SDS011;3362;50.892;10.692;2024-03-08T05:16:35;4.10;;;3.78;;
6651;SDS011;3362;50.892;10.692;2024-03-08T05:19:01;3.15;;;3.00;;
6651;SDS011;3362;50.892;10.692;2024-03-08T05:21:28;3.22;;;2.33;;
6651;SDS011;3362;50.892;10.692;2024-03-08T05:23:54;8.32;;;3.13;;
6651;SDS011;3362;50.892;10.692;2024-03-08T05:26:21;5.45;;;3.15;;
6651;SDS011;3362;50.892;10.692;2024-03-08T05:28:48;3.25;;;3.05;;
6651;SDS011;3362;50.892;10.692;2024-03-08T05:31:19;10.18;;;5.13;;
6651;SDS011;3362;50.892;10.692;2024-03-08T05:33:45;7.47;;;4.93;;
6651;SDS011;3362;50.892;10.692;2024-03-08T05:36:12;2.55;;;2.38;;
6651;SDS011;3362;50.892;10.692;2024-03-08T05:38:40;7.85;;;4.10;;
6651;SDS011;3362;50.892;10.692;2024-03-08T05:41:07;5.90;;;5.38;;
6651;SDS011;3362;50.892;10.692;2024-03-08T05:43:34;3.70;;;3.50;;
6651;SDS011;3362;50.892;10.692;2024-03-08T05:46:00;7.07;;;4.22;;
6651;SDS011;3362;50.892;10.692;2024-03-08T05:48:27;3.75;;;2.58;;
6651;SDS011;3362;50.892;10.692;2024-03-08T05:50:54;6.30;;;3.97;;
6651;SDS011;3362;50.892;10.692;2024-03-08T05:53:22;5.68;;;4.22;;
6651;SDS011;3362;50.892;10.692;2024-03-08T05:55:48;4.75;;;4.35;;
6651;SDS011;3362;50.892;10.692;2024-03-08T05:58:14;11.50;;;6.32;;
6651;SDS011;3362;50.892;10.692;2024-03-08T06:00:40;5.50;;;3.28;;
6651;SDS011;3362;50.892;10.692;2024-03-08T06:03:06;2.50;;;2.17;;
6651;SDS011;3362;50.892;10.692;2024-03-08T06:05:34;3.40;;;3.25;;
6651;SDS011;3362;50.892;10.692;2024-03-08T06:08:00;4.40;;;3.80;;
6651;SDS011;3362;50.892;10.692;2024-03-08T06:10:26;7.35;;;6.72;;
6651;SDS011;3362;50.892;10.692;2024-03-08T06:12:53;4.95;;;4.00;;
6651;SDS011;3362;50.892;10.692;2024-03-08T06:15:19;9.32;;;7.95;;
6651;SDS011;3362;50.892;10.692;2024-03-08T06:17:46;3.67;;;3.35;;
6651;SDS011;3362;50.892;10.692;2024-03-08T06:20:12;4.13;;;3.95;;
6651;SDS011;3362;50.892;10.692;2024-03-08T06:22:40;2.33;;;2.22;;
6651;SDS011;3362;50.892;10.692;2024-03-08T06:25:06;5.30;;;4.90;;
6651;SDS011;3362;50.892;10.692;2024-03-08T06:27:33;6.25;;;5.13;;
6651;SDS011;3362;50.892;10.692;2024-03-08T06:29:59;3.97;;;3.55;;
6651;SDS011;3362;50.892;10.692;2024-03-08T06:32:25;8.98;;;6.93;;
6651;SDS011;3362;50.892;10.692;2024-03-08T06:34:51;9.65;;;3.38;;
6651;SDS011;3362;50.892;10.692;2024-03-08T06:37:18;8.38;;;3.00;;
6651;SDS011;3362;50.892;10.692;2024-03-08T06:39:49;11.30;;;6.93;;
6651;SDS011;3362;50.892;10.692;2024-03-08T06:42:16;8.52;;;3.53;;
6651;SDS011;3362;50.892;10.692;2024-03-08T06:44:42;11.50;;;4.78;;
6651;SDS011;3362;50.892;10.692;2024-03-08T06:47:13;5.07;;;4.50;;
6651;SDS011;3362;50.892;10.692;2024-03-08T06:49:40;3.40;;;2.70;;
6651;SDS011;3362;50.892;10.692;2024-03-08T06:52:06;5.00;;;4.55;;
6651;SDS011;3362;50.892;10.692;2024-03-08T06:54:34;5.50;;;5.10;;
6651;SDS011;3362;50.892;10.692;2024-03-08T06:57:02;5.30;;;4.90;;
6651;SDS011;3362;50.892;10.692;2024-03-08T06:59:28;3.70;;;2.30;;
6651;SDS011;3362;50.892;10.692;2024-03-08T07:01:55;10.35;;;5.55;;
6651;SDS011;3362;50.892;10.692;2024-03-08T07:04:21;5.93;;;4.15;;
6651;SDS011;3362;50.892;10.692;2024-03-08T07:06:51;6.60;;;3.55;;
6651;SDS011;3362;50.892;10.692;2024-03-08T07:09:17;9.90;;;5.85;;
6651;SDS011;3362;50.892;10.692;2024-03-08T07:11:43;4.03;;;3.72;;
6651;SDS011;3362;50.892;10.692;2024-03-08T07:14:11;9.27;;;3.78;;
6651;SDS011;3362;50.892;10.692;2024-03-08T07:16:38;8.07;;;4.97;;
6651;SDS011;3362;50.892;10.692;2024-03-08T07:19:06;6.32;;;5.50;;
6651;SDS011;3362;50.892;10.692;2024-03-08T07:21:32;6.35;;;3.85;;
6651;SDS011;3362;50.892;10.692;2024-03-08T07:23:58;5.45;;;5.15;;
6651;SDS011;3362;50.892;10.692;2024-03-08T07:26:39;7.15;;;4.78;;
6651;SDS011;3362;50.892;10.692;2024-03-08T07:29:05;8.23;;;7.60;;
6651;SDS011;3362;50.892;10.692;2024-03-08T07:31:34;9.15;;;4.82;;
6651;SDS011;3362;50.892;10.692;2024-03-08T07:34:15;10.60;;;4.00;;
6651;SDS011;3362;50.892;10.692;2024-03-08T07:36:41;4.60;;;4.18;;
6651;SDS011;3362;50.892;10.692;2024-03-08T07:39:08;7.22;;;3.55;;
6651;SDS011;3362;50.892;10.692;2024-03-08T07:41:36;4.50;;;3.47;;
6651;SDS011;3362;50.892;10.692;2024-03-08T07:44:02;5.55;;;4.07;;
6651;SDS011;3362;50.892;10.692;2024-03-08T07:46:28;10.68;;;5.10;;
6651;SDS011;3362;50.892;10.692;2024-03-08T07:48:56;6.15;;;5.47;;
6651;SDS011;3362;50.892;10.692;2024-03-08T07:51:22;11.77;;;7.00;;
6651;SDS011;3362;50.892;10.692;2024-03-08T07:53:49;7.10;;;6.15;;
6651;SDS011;3362;50.892;10.692;2024-03-08T07:56:15;4.10;;;3.03;;
6651;SDS011;3362;50.892;10.692;2024-03-08T07:58:43;6.88;;;4.35;;
6651;SDS011;3362;50.892;10.692;2024-03-08T08:01:15;9.63;;;5.55;;
6651;SDS011;3362;50.892;10.692;2024-03-08T08:03:41;9.55;;;5.03;;
6651;SDS011;3362;50.892;10.692;2024-03-08T08:06:09;13.50;;;6.63;;
6651;SDS011;3362;50.892;10.692;2024-03-08T08:08:40;5.50;;;4.03;;
6651;SDS011;3362;50.892;10.692;2024-03-08T08:11:07;6.75;;;4.90;;
6651;SDS011;3362;50.892;10.692;2024-03-08T08:13:33;7.10;;;5.47;;
6651;SDS011;3362;50.892;10.692;2024-03-08T08:16:01;4.88;;;4.47;;
6651;SDS011;3362;50.892;10.692;2024-03-08T08:18:27;6.78;;;5.80;;
6651;SDS011;3362;50.892;10.692;2024-03-08T08:23:22;10.90;;;4.22;;
6651;SDS011;3362;50.892;10.692;2024-03-08T08:25:48;5.97;;;5.47;;
6651;SDS011;3362;50.892;10.692;2024-03-08T08:28:15;4.88;;;4.50;;
6651;SDS011;3362;50.892;10.692;2024-03-08T08:30:42;6.47;;;4.53;;
6651;SDS011;3362;50.892;10.692;2024-03-08T08:33:08;8.27;;;5.00;;
6651;SDS011;3362;50.892;10.692;2024-03-08T08:35:35;12.88;;;5.00;;
6651;SDS011;3362;50.892;10.692;2024-03-08T08:38:02;5.90;;;4.97;;
6651;SDS011;3362;50.892;10.692;2024-03-08T08:40:30;7.10;;;5.95;;
6651;SDS011;3362;50.892;10.692;2024-03-08T08:42:57;11.85;;;5.97;;
6651;SDS011;3362;50.892;10.692;2024-03-08T08:45:23;5.20;;;4.82;;
6651;SDS011;3362;50.892;10.692;2024-03-08T08:47:49;12.13;;;7.03;;
6651;SDS011;3362;50.892;10.692;2024-03-08T08:50:15;8.00;;;6.22;;
6651;SDS011;3362;50.892;10.692;2024-03-08T08:52:47;12.93;;;5.85;;
6651;SDS011;3362;50.892;10.692;2024-03-08T08:55:14;15.10;;;7.22;;
6651;SDS011;3362;50.892;10.692;2024-03-08T08:57:41;8.35;;;7.38;;
6651;SDS011;3362;50.892;10.692;2024-03-08T09:00:08;9.90;;;8.07;;
6651;SDS011;3362;50.892;10.692;2024-03-08T09:02:39;11.20;;;6.72;;
6651;SDS011;3362;50.892;10.692;2024-03-08T09:05:06;9.10;;;6.55;;
6651;SDS011;3362;50.892;10.692;2024-03-08T09:07:32;7.32;;;6.60;;
6651;SDS011;3362;50.892;10.692;2024-03-08T09:09:59;7.47;;;6.15;;
6651;SDS011;3362;50.892;10.692;2024-03-08T09:12:25;10.60;;;6.25;;
6651;SDS011;3362;50.892;10.692;2024-03-08T09:14:52;6.57;;;3.63;;
6651;SDS011;3362;50.892;10.692;2024-03-08T09:17:19;11.35;;;6.65;;
6651;SDS011;3362;50.892;10.692;2024-03-08T09:19:46;10.05;;;8.00;;
6651;SDS011;3362;50.892;10.692;2024-03-08T09:22:12;4.90;;;4.50;;
6651;SDS011;3362;50.892;10.692;2024-03-08T09:24:38;8.40;;;6.20;;
6651;SDS011;3362;50.892;10.692;2024-03-08T09:27:05;8.32;;;5.95;;
6651;SDS011;3362;50.892;10.692;2024-03-08T09:29:31;9.88;;;3.95;;
6651;SDS011;3362;50.892;10.692;2024-03-08T09:31:59;6.97;;;5.15;;
6651;SDS011;3362;50.892;10.692;2024-03-08T09:34:25;8.25;;;6.35;;
6651;SDS011;3362;50.892;10.692;2024-03-08T09:36:52;9.30;;;6.45;;
6651;SDS011;3362;50.892;10.692;2024-03-08T09:39:18;10.70;;;6.00;;
6651;SDS011;3362;50.892;10.692;2024-03-08T09:41:45;14.38;;;9.07;;
6651;SDS011;3362;50.892;10.692;2024-03-08T09:44:13;7.10;;;5.53;;
6651;SDS011;3362;50.892;10.692;2024-03-08T09:46:39;10.88;;;7.70;;
6651;SDS011;3362;50.892;10.692;2024-03-08T09:49:07;9.68;;;5.75;;
6651;SDS011;3362;50.892;10.692;2024-03-08T09:51:34;12.35;;;5.75;;
6651;SDS011;3362;50.892;10.692;2024-03-08T09:54:00;9.20;;;5.38;;
6651;SDS011;3362;50.892;10.692;2024-03-08T09:56:29;10.65;;;7.03;;
6651;SDS011;3362;50.892;10.692;2024-03-08T09:58:57;8.68;;;6.30;;
6651;SDS011;3362;50.892;10.692;2024-03-08T10:01:45;11.82;;;7.78;;
6651;SDS011;3362;50.892;10.692;2024-03-08T10:04:12;11.25;;;6.07;;
6651;SDS011;3362;50.892;10.692;2024-03-08T10:06:39;7.68;;;5.65;;
6651;SDS011;3362;50.892;10.692;2024-03-08T10:09:05;14.02;;;7.25;;
6651;SDS011;3362;50.892;10.692;2024-03-08T10:11:33;11.23;;;5.07;;
6651;SDS011;3362;50.892;10.692;2024-03-08T10:13:59;6.53;;;3.92;;
6651;SDS011;3362;50.892;10.692;2024-03-08T10:16:26;10.02;;;5.47;;
6651;SDS011;3362;50.892;10.692;2024-03-08T10:18:53;7.82;;;5.70;;
6651;SDS011;3362;50.892;10.692;2024-03-08T10:21:21;12.60;;;7.07;;
6651;SDS011;3362;50.892;10.692;2024-03-08T10:23:47;9.15;;;6.85;;
6651;SDS011;3362;50.892;10.692;2024-03-08T10:26:14;8.48;;;5.28;;
6651;SDS011;3362;50.892;10.692;2024-03-08T10:28:41;8.23;;;4.80;;
6651;SDS011;3362;50.892;10.692;2024-03-08T10:31:07;8.15;;;4.85;;
6651;SDS011;3362;50.892;10.692;2024-03-08T10:33:34;12.95;;;5.80;;
6651;SDS011;3362;50.892;10.692;2024-03-08T10:36:00;14.95;;;5.70;;
6651;SDS011;3362;50.892;10.692;2024-03-08T10:38:29;7.60;;;6.05;;
6651;SDS011;3362;50.892;10.692;2024-03-08T10:40:57;10.68;;;6.18;;
6651;SDS011;3362;50.892;10.692;2024-03-08T10:43:24;10.30;;;5.30;;
6651;SDS011;3362;50.892;10.692;2024-03-08T10:45:55;8.82;;;6.00;;
6651;SDS011;3362;50.892;10.692;2024-03-08T10:48:26;13.32;;;7.90;;
6651;SDS011;3362;50.892;10.692;2024-03-08T10:50:56;14.30;;;6.18;;
6651;SDS011;3362;50.892;10.692;2024-03-08T10:53:23;11.20;;;6.47;;
6651;SDS011;3362;50.892;10.692;2024-03-08T10:55:50;11.00;;;5.97;;
6651;SDS011;3362;50.892;10.692;2024-03-08T10:58:18;9.40;;;6.18;;
6651;SDS011;3362;50.892;10.692;2024-03-08T11:00:45;11.57;;;7.78;;
6651;SDS011;3362;50.892;10.692;2024-03-08T11:05:56;7.07;;;4.65;;
6651;SDS011;3362;50.892;10.692;2024-03-08T11:08:22;12.70;;;5.75;;
6651;SDS011;3362;50.892;10.692;2024-03-08T11:10:49;9.45;;;6.65;;
6651;SDS011;3362;50.892;10.692;2024-03-08T11:13:33;9.55;;;5.78;;
6651;SDS011;3362;50.892;10.692;2024-03-08T11:16:00;8.63;;;6.47;;
6651;SDS011;3362;50.892;10.692;2024-03-08T11:18:26;11.63;;;6.85;;
6651;SDS011;3362;50.892;10.692;2024-03-08T11:20:53;9.77;;;4.93;;
6651;SDS011;3362;50.892;10.692;2024-03-08T11:23:21;12.85;;;5.90;;
6651;SDS011;3362;50.892;10.692;2024-03-08T11:25:50;15.20;;;8.27;;
6651;SDS011;3362;50.892;10.692;2024-03-08T11:28:18;11.35;;;6.95;;
6651;SDS011;3362;50.892;10.692;2024-03-08T11:30:46;9.02;;;5.88;;
6651;SDS011;3362;50.892;10.692;2024-03-08T11:33:13;10.70;;;6.80;;
6651;SDS011;3362;50.892;10.692;2024-03-08T11:35:39;13.73;;;7.00;;
6651;SDS011;3362;50.892;10.692;2024-03-08T11:38:07;5.93;;;4.85;;
6651;SDS011;3362;50.892;10.692;2024-03-08T11:40:33;12.52;;;7.68;;
6651;SDS011;3362;50.892;10.692;2024-03-08T11:43:00;13.68;;;6.38;;
6651;SDS011;3362;50.892;10.692;2024-03-08T11:45:28;9.93;;;7.22;;
6651;SDS011;3362;50.892;10.692;2024-03-08T11:47:56;12.57;;;6.65;;
6651;SDS011;3362;50.892;10.692;2024-03-08T11:50:23;12.45;;;8.10;;
6651;SDS011;3362;50.892;10.692;2024-03-08T11:52:49;11.07;;;7.10;;
6651;SDS011;3362;50.892;10.692;2024-03-08T11:55:16;12.60;;;6.68;;
6651;SDS011;3362;50.892;10.692;2024-03-08T11:57:44;13.88;;;7.68;;
6651;SDS011;3362;50.892;10.692;2024-03-08T12:00:14;12.18;;;6.50;;
6651;SDS011;3362;50.892;10.692;2024-03-08T12:02:47;16.20;;;9.00;;
6651;SDS011;3362;50.892;10.692;2024-03-08T12:05:27;16.55;;;10.07;;
6651;SDS011;3362;50.892;10.692;2024-03-08T12:07:56;12.45;;;8.25;;
6651;SDS011;3362;50.892;10.692;2024-03-08T12:10:22;17.40;;;7.85;;
6651;SDS011;3362;50.892;10.692;2024-03-08T12:12:50;16.45;;;9.45;;
6651;SDS011;3362;50.892;10.692;2024-03-08T12:15:17;11.80;;;8.02;;
6651;SDS011;3362;50.892;10.692;2024-03-08T12:17:44;16.67;;;8.80;;
6651;SDS011;3362;50.892;10.692;2024-03-08T12:20:14;12.25;;;8.45;;
6651;SDS011;3362;50.892;10.692;2024-03-08T12:22:42;17.95;;;8.95;;
6651;SDS011;3362;50.892;10.692;2024-03-08T12:25:09;13.40;;;8.48;;
6651;SDS011;3362;50.892;10.692;2024-03-08T12:27:36;15.30;;;9.25;;
6651;SDS011;3362;50.892;10.692;2024-03-08T12:30:14;15.20;;;9.90;;
6651;SDS011;3362;50.892;10.692;2024-03-08T12:32:45;15.77;;;9.40;;
6651;SDS011;3362;50.892;10.692;2024-03-08T12:35:12;14.68;;;9.90;;
6651;SDS011;3362;50.892;10.692;2024-03-08T12:37:38;12.63;;;8.23;;
6651;SDS011;3362;50.892;10.692;2024-03-08T12:40:08;15.68;;;8.55;;
6651;SDS011;3362;50.892;10.692;2024-03-08T12:42:35;15.93;;;9.10;;
6651;SDS011;3362;50.892;10.692;2024-03-08T12:45:02;15.43;;;8.32;;
6651;SDS011;3362;50.892;10.692;2024-03-08T12:47:31;15.43;;;9.98;;
6651;SDS011;3362;50.892;10.692;2024-03-08T12:49:58;15.05;;;8.52;;
6651;SDS011;3362;50.892;10.692;2024-03-08T12:52:24;16.10;;;9.75;;
6651;SDS011;3362;50.892;10.692;2024-03-08T12:54:50;13.82;;;8.82;;
6651;SDS011;3362;50.892;10.692;2024-03-08T12:57:18;13.00;;;8.68;;
6651;SDS011;3362;50.892;10.692;2024-03-08T12:59:44;14.07;;;7.93;;
6651;SDS011;3362;50.892;10.692;2024-03-08T13:02:10;13.40;;;8.85;;
6651;SDS011;3362;50.892;10.692;2024-03-08T13:04:37;20.58;;;9.85;;
6651;SDS011;3362;50.892;10.692;2024-03-08T13:07:03;13.85;;;8.93;;
6651;SDS011;3362;50.892;10.692;2024-03-08T13:09:29;13.23;;;8.23;;
6651;SDS011;3362;50.892;10.692;2024-03-08T13:11:56;13.88;;;9.80;;
6651;SDS011;3362;50.892;10.692;2024-03-08T13:14:27;15.20;;;9.13;;
6651;SDS011;3362;50.892;10.692;2024-03-08T13:16:56;13.80;;;8.57;;
6651;SDS011;3362;50.892;10.692;2024-03-08T13:19:24;14.38;;;8.07;;
6651;SDS011;3362;50.892;10.692;2024-03-08T13:21:53;18.05;;;9.27;;
6651;SDS011;3362;50.892;10.692;2024-03-08T13:24:19;14.13;;;8.95;;
6651;SDS011;3362;50.892;10.692;2024-03-08T13:26:45;14.05;;;8.05;;
6651;SDS011;3362;50.892;10.692;2024-03-08T13:29:11;13.30;;;8.75;;
6651;SDS011;3362;50.892;10.692;2024-03-08T13:31:41;13.25;;;9.38;;
6651;SDS011;3362;50.892;10.692;2024-03-08T13:34:07;12.45;;;8.20;;
6651;SDS011;3362;50.892;10.692;2024-03-08T13:36:36;17.83;;;9.10;;
6651;SDS011;3362;50.892;10.692;2024-03-08T13:39:07;15.50;;;9.18;;
6651;SDS011;3362;50.892;10.692;2024-03-08T13:41:40;13.63;;;8.43;;
6651;SDS011;3362;50.892;10.692;2024-03-08T13:44:06;14.90;;;9.00;;
6651;SDS011;3362;50.892;10.692;2024-03-08T13:46:32;13.15;;;9.27;;
6651;SDS011;3362;50.892;10.692;2024-03-08T13:49:03;11.73;;;8.32;;
6651;SDS011;3362;50.892;10.692;2024-03-08T13:51:30;14.10;;;8.75;;
6651;SDS011;3362;50.892;10.692;2024-03-08T13:53:57;16.02;;;9.90;;
6651;SDS011;3362;50.892;10.692;2024-03-08T13:56:25;12.25;;;8.32;;
6651;SDS011;3362;50.892;10.692;2024-03-08T13:58:51;15.05;;;8.80;;
6651;SDS011;3362;50.892;10.692;2024-03-08T14:01:21;14.88;;;8.23;;
6651;SDS011;3362;50.892;10.692;2024-03-08T14:03:47;13.30;;;8.65;;
6651;SDS011;3362;50.892;10.692;2024-03-08T14:06:15;15.40;;;8.55;;
6651;SDS011;3362;50.892;10.692;2024-03-08T14:08:41;12.68;;;8.43;;
6651;SDS011;3362;50.892;10.692;2024-03-08T14:11:07;13.57;;;8.27;;
6651;SDS011;3362;50.892;10.692;2024-03-08T14:13:40;13.38;;;8.90;;
6651;SDS011;3362;50.892;10.692;2024-03-08T14:16:07;13.13;;;8.43;;
6651;SDS011;3362;50.892;10.692;2024-03-08T14:18:35;12.35;;;8.02;;
6651;SDS011;3362;50.892;10.692;2024-03-08T14:21:01;16.38;;;8.55;;
6651;SDS011;3362;50.892;10.692;2024-03-08T14:23:30;13.80;;;8.93;;
6651;SDS011;3362;50.892;10.692;2024-03-08T14:25:57;13.82;;;8.20;;
6651;SDS011;3362;50.892;10.692;2024-03-08T14:28:24;12.20;;;8.50;;
6651;SDS011;3362;50.892;10.692;2024-03-08T14:30:52;13.60;;;9.00;;
6651;SDS011;3362;50.892;10.692;2024-03-08T14:33:18;12.23;;;9.35;;
6651;SDS011;3362;50.892;10.692;2024-03-08T14:35:44;13.50;;;8.18;;
6651;SDS011;3362;50.892;10.692;2024-03-08T14:38:12;16.83;;;9.00;;
6651;SDS011;3362;50.892;10.692;2024-03-08T14:40:39;13.52;;;7.85;;
6651;SDS011;3362;50.892;10.692;2024-03-08T14:43:06;14.43;;;9.05;;
6651;SDS011;3362;50.892;10.692;2024-03-08T14:45:32;16.52;;;8.30;;
6651;SDS011;3362;50.892;10.692;2024-03-08T14:47:58;13.60;;;8.90;;
6651;SDS011;3362;50.892;10.692;2024-03-08T14:50:25;17.05;;;9.35;;
6651;SDS011;3362;50.892;10.692;2024-03-08T14:52:51;13.57;;;9.30;;
6651;SDS011;3362;50.892;10.692;2024-03-08T14:55:18;16.60;;;9.70;;
6651;SDS011;3362;50.892;10.692;2024-03-08T14:57:48;12.50;;;8.82;;
6651;SDS011;3362;50.892;10.692;2024-03-08T15:00:16;15.77;;;8.48;;
6651;SDS011;3362;50.892;10.692;2024-03-08T15:02:51;16.10;;;9.73;;
6651;SDS011;3362;50.892;10.692;2024-03-08T15:05:18;11.98;;;7.85;;